EGKK/LGW METAR and TAF weather

Enter ICAO airport designator
Station Type Date Time Source
EGKK METAR 2020/11/25 22:50 UTC NOAA

EGKK 252250Z 34004KT 9999 BKN034 08/06 Q1019


Station Type Date Time Source
EGKK Decoded METAR 2020/11/25 22:50 UTC NOAA

London / Gatwick Airport, United Kingdom (EGKK) 51-09N 000-11W 0M
Nov 25, 2020 - 05:50 PM EST / 2020.11.25 2250 UTC
Wind: from the NNW (340 degrees) at 5 MPH (4 KT):0
Visibility: greater than 7 mile(s):0
Sky conditions: mostly cloudy
Temperature: 46 F (8 C)
Dew Point: 42 F (6 C)
Relative Humidity: 87%
Pressure (altimeter): 30.09 in. Hg (1019 hPa)
ob: EGKK 252250Z 34004KT 9999 BKN034 08/06 Q1019
cycle: 23

Station Type Date Time Source
EGKK TAF 2020/11/25 18:09 UTC NOAA

TAF EGKK 251653Z 2518/2624 33008KT 9999 BKN012
BECMG 2518/2521 SCT030 PROB30
TEMPO 2521/2602 BKN012
TEMPO 2601/2610 6000 PROB30
TEMPO 2606/2609 3000 BR
TEMPO 2615/2624 5000 BR PROB30 2621/2624 0800 FG OVC001

Example: see airport list